Portada
METAR-TAF:

METAR-TAF

Aeropuertos :

Aeropuerto Internacional de Xi'an-Xianyang

Xi'an, China

latitud: 34-26N, longitud: 108-45E, altitud: 479 m

Observación

El informe se hizo hace 29 minutos, a las 03:00 UTC
Viento 6 kt del oeste-suroeste, variando entre sur y noroeste
Temperatura 16°C
Humedad 63%
Presión 1026 hPa
Visibilidad 10 km o más
sin nubes por debajo de 1500 m y sin presencia de cumulonimbus.

METAR: ZLXY 220300Z 24003MPS 190V320 CAVOK 16/09 Q1026 NOSIG

Hora: 11:29 (03:29 UTC)

Pronóstico

El informe se hizo hace 8 horas y 2 minutos, a las 19:27 UTC
Pronóstico válido del 22 a las 00 UTC al 22 a las 24 UTC
Viento 6 kt del oeste-suroeste
Visibilidad: 2000 m
neblina
Evolucionando progresivamente
del 22 a las 02 UTC al 22 a las 03 UTC
Visibilidad: 3000 m
Temporalmente
del 22 a las 00 UTC al 22 a las 01 UTC
Visibilidad: 0800 m
niebla

TAF: ZLXY 211927Z 2200/2224 24003MPS 2000 BR NSC TX21/2207Z TN08/2222Z BECMG 2202/2203 3000 TEMPO 2200/2201 0800 FG

Observaciones y pronósticos meteorológicos de más de 4000 aeropuertos (mensajes METAR y TAF).

Los puntos amarillos y rojos representan las estaciones disponibles.

Ponga el ratón en el punto deseado para ver el nombre de la estación.

Haga clic para ver las observaciones y los pronósticos meteorológicos.

Para cambiar el mapa : haga clic en los botones verdes con una cruz de color negro para hacer un zoom, en el botón verde con un guión para alejar o en las flechas verdes para mapas adyacentes.


METAR-TAF: